createdAt,value
2018-03-19T00:01:00.491Z,38.23
2018-03-19T00:02:04.545Z,38.27
2018-03-19T00:03:07.895Z,38.26
2018-03-19T00:04:11.307Z,38.26
2018-03-19T00:05:14.650Z,38.29
2018-03-19T00:06:17.963Z,38.31
2018-03-19T00:07:21.409Z,38.31
2018-03-19T00:08:24.703Z,38.32
2018-03-19T00:09:28.044Z,38.33
2018-03-19T00:10:31.617Z,38.35
2018-03-19T00:11:34.992Z,38.34
2018-03-19T00:12:38.404Z,38.37
2018-03-19T00:13:41.738Z,38.41
2018-03-19T00:14:45.056Z,38.42
2018-03-19T00:15:48.357Z,38.44
2018-03-19T00:16:51.914Z,38.44
2018-03-19T00:17:55.279Z,38.48
2018-03-19T00:18:58.817Z,38.49
2018-03-19T00:20:02.199Z,38.48
2018-03-19T00:21:06.481Z,38.50
2018-03-19T00:22:11.416Z,38.51
2018-03-19T00:23:14.859Z,38.53
2018-03-19T00:24:18.191Z,38.55
2018-03-19T00:25:21.588Z,38.55
2018-03-19T00:26:24.948Z,38.57
2018-03-19T00:27:28.237Z,38.60
2018-03-19T00:28:31.653Z,38.61
2018-03-19T00:29:35.860Z,38.60
2018-03-19T00:30:39.198Z,38.57
2018-03-19T00:31:44.537Z,38.57
2018-03-19T00:32:47.896Z,38.56
2018-03-19T00:33:52.466Z,38.53
2018-03-19T00:34:55.943Z,38.57
2018-03-19T00:36:00.072Z,38.59
2018-03-19T00:37:03.390Z,38.60
2018-03-19T00:38:07.460Z,38.59
2018-03-19T00:39:10.907Z,38.62
2018-03-19T00:40:15.253Z,38.65
2018-03-19T00:41:18.557Z,38.66
2018-03-19T00:42:21.896Z,38.70
2018-03-19T00:43:25.442Z,38.72
2018-03-19T00:44:28.764Z,38.70
2018-03-19T00:45:32.174Z,38.73
2018-03-19T00:46:35.556Z,38.74
2018-03-19T00:47:38.861Z,38.74
2018-03-19T00:48:43.104Z,38.74
2018-03-19T00:49:46.448Z,38.76
2018-03-19T00:50:51.924Z,38.80
2018-03-19T00:51:55.883Z,38.81
2018-03-19T00:52:59.159Z,38.84
2018-03-19T00:54:03.572Z,38.82
2018-03-19T00:55:07.000Z,38.84
2018-03-19T00:56:10.639Z,38.85
2018-03-19T00:57:14.037Z,38.86
2018-03-19T00:58:18.180Z,38.86
2018-03-19T00:59:23.567Z,38.84
2018-03-19T01:00:26.980Z,38.84
2018-03-19T01:01:30.380Z,38.87
2018-03-19T01:02:34.439Z,38.91
2018-03-19T01:03:37.836Z,38.92
2018-03-19T01:04:41.193Z,38.92
2018-03-19T01:05:44.650Z,38.94
2018-03-19T01:06:47.964Z,38.97
2018-03-19T01:07:51.294Z,38.98
2018-03-19T01:08:54.683Z,38.99
2018-03-19T01:09:58.007Z,39.02
2018-03-19T01:11:01.357Z,39.05
2018-03-19T01:12:04.768Z,39.06
2018-03-19T01:13:09.092Z,39.09
2018-03-19T01:14:12.409Z,39.04
2018-03-19T01:15:15.713Z,38.97
2018-03-19T01:16:19.051Z,38.93
2018-03-19T01:17:22.471Z,38.94
2018-03-19T01:18:25.849Z,38.90
2018-03-19T01:19:29.182Z,38.89
2018-03-19T01:20:32.579Z,38.91
2018-03-19T01:21:36.033Z,38.90
2018-03-19T01:22:39.743Z,38.89
2018-03-19T01:23:43.184Z,38.90
2018-03-19T01:24:46.988Z,38.95
2018-03-19T01:25:50.692Z,38.97
2018-03-19T01:26:54.348Z,39.00
2018-03-19T01:27:57.727Z,39.02
2018-03-19T01:29:01.114Z,39.04
2018-03-19T01:30:05.234Z,39.02
2018-03-19T01:31:08.677Z,39.02
2018-03-19T01:32:12.108Z,39.05
2018-03-19T01:33:15.472Z,39.05
2018-03-19T01:34:18.804Z,39.04
2018-03-19T01:35:22.224Z,39.02
2018-03-19T01:36:25.544Z,39.02
2018-03-19T01:37:28.893Z,39.05
2018-03-19T01:38:32.278Z,39.08
2018-03-19T01:39:35.647Z,39.09
2018-03-19T01:40:39.000Z,39.06
2018-03-19T01:41:42.472Z,39.01
2018-03-19T01:42:45.851Z,39.03
2018-03-19T01:43:49.216Z,39.08
2018-03-19T01:44:52.620Z,39.11
2018-03-19T01:45:55.945Z,39.13
2018-03-19T01:46:59.263Z,39.14
2018-03-19T01:48:02.733Z,39.12
2018-03-19T01:49:06.108Z,39.11
2018-03-19T01:50:09.525Z,39.09
2018-03-19T01:51:12.948Z,39.10
2018-03-19T01:52:16.277Z,39.12
2018-03-19T01:53:19.764Z,39.15
2018-03-19T01:54:23.109Z,39.13
2018-03-19T01:55:26.583Z,39.13
2018-03-19T01:56:30.551Z,39.15
2018-03-19T01:57:33.894Z,39.13
2018-03-19T01:58:37.360Z,39.12
2018-03-19T01:59:41.553Z,39.08
2018-03-19T02:00:44.901Z,39.06
2018-03-19T02:01:48.307Z,39.09
2018-03-19T02:02:51.984Z,39.15
2018-03-19T02:03:55.345Z,39.18
2018-03-19T02:04:58.688Z,39.13
2018-03-19T02:06:02.079Z,39.11
2018-03-19T02:07:05.421Z,39.09
2018-03-19T02:08:08.792Z,39.08
2018-03-19T02:09:12.745Z,39.06
2018-03-19T02:10:16.056Z,39.03
2018-03-19T02:11:19.632Z,39.01
2018-03-19T02:12:23.078Z,38.94
2018-03-19T02:13:26.474Z,38.94
2018-03-19T02:14:29.840Z,38.97
2018-03-19T02:15:34.387Z,38.97
2018-03-19T02:16:37.828Z,39.01
2018-03-19T02:17:41.204Z,39.02
2018-03-19T02:18:44.588Z,39.05
2018-03-19T02:19:54.730Z,39.10
2018-03-19T02:20:58.127Z,39.14
2018-03-19T02:22:01.455Z,39.12
2018-03-19T02:23:04.826Z,39.03
2018-03-19T02:24:08.189Z,39.05
2018-03-19T02:25:11.480Z,39.09
2018-03-19T02:26:14.836Z,39.15
2018-03-19T02:27:18.220Z,39.19
2018-03-19T02:28:21.803Z,39.19
2018-03-19T02:29:25.160Z,39.23
2018-03-19T02:30:28.586Z,39.24
2018-03-19T02:31:31.965Z,39.26
2018-03-19T02:32:35.312Z,39.30
2018-03-19T02:33:38.628Z,39.33
2018-03-19T02:34:42.158Z,39.34
2018-03-19T02:35:45.520Z,39.37
2018-03-19T02:36:48.904Z,39.39
2018-03-19T02:37:52.210Z,39.42
2018-03-19T02:38:55.526Z,39.45
2018-03-19T02:39:58.854Z,39.47
2018-03-19T02:41:02.173Z,39.48
2018-03-19T02:42:05.505Z,39.47
2018-03-19T02:43:08.897Z,39.48
2018-03-19T02:44:12.318Z,39.45
2018-03-19T02:45:15.642Z,39.45
2018-03-19T02:46:19.091Z,39.44
2018-03-19T02:47:22.433Z,39.46
2018-03-19T02:48:26.115Z,39.46
2018-03-19T02:49:29.418Z,39.44
2018-03-19T02:50:32.756Z,39.46
2018-03-19T02:51:36.179Z,39.49
2018-03-19T02:52:39.594Z,39.49
2018-03-19T02:53:42.916Z,39.53
2018-03-19T02:54:46.232Z,39.63
2018-03-19T02:55:49.530Z,39.64
2018-03-19T02:56:52.865Z,39.68
2018-03-19T02:57:56.182Z,39.71
2018-03-19T02:58:59.481Z,39.74
2018-03-19T03:00:05.407Z,39.77
2018-03-19T03:01:08.715Z,39.80
2018-03-19T03:02:12.079Z,39.81
2018-03-19T03:03:15.415Z,39.82
2018-03-19T03:04:18.736Z,39.80
2018-03-19T03:05:22.037Z,39.82
2018-03-19T03:06:25.766Z,39.80
2018-03-19T03:07:29.963Z,39.80
2018-03-19T03:08:33.274Z,39.77
2018-03-19T03:09:36.692Z,39.76
2018-03-19T03:10:40.055Z,39.81
2018-03-19T03:11:43.376Z,39.83
2018-03-19T03:12:46.758Z,39.79
2018-03-19T03:13:50.159Z,39.86
2018-03-19T03:14:53.535Z,39.91
2018-03-19T03:15:56.827Z,39.93
2018-03-19T03:17:00.326Z,39.94
2018-03-19T03:18:03.840Z,39.97
2018-03-19T03:19:07.170Z,39.98
2018-03-19T03:20:10.496Z,39.96
2018-03-19T03:21:13.858Z,39.95
2018-03-19T03:22:17.181Z,39.94
2018-03-19T03:23:20.571Z,39.98
2018-03-19T03:24:23.950Z,40.01
2018-03-19T03:25:28.461Z,40.04
2018-03-19T03:26:31.824Z,40.09
2018-03-19T03:27:35.291Z,40.11
2018-03-19T03:28:39.192Z,40.15
2018-03-19T03:29:42.625Z,40.15
2018-03-19T03:30:45.931Z,40.18
2018-03-19T03:31:49.246Z,40.24
2018-03-19T03:32:52.598Z,40.26
2018-03-19T03:33:56.021Z,40.22
2018-03-19T03:34:59.473Z,40.22
2018-03-19T03:36:03.832Z,40.25
2018-03-19T03:37:07.334Z,40.32
2018-03-19T03:38:10.653Z,40.34
2018-03-19T03:39:14.071Z,40.37
2018-03-19T03:40:17.362Z,40.42
2018-03-19T03:41:20.650Z,40.42
2018-03-19T03:42:23.995Z,40.35
2018-03-19T03:43:27.310Z,40.37
2018-03-19T03:44:30.689Z,40.33
2018-03-19T03:45:33.976Z,40.33
2018-03-19T03:46:37.287Z,40.33
2018-03-19T03:47:40.689Z,40.30
2018-03-19T03:48:43.990Z,40.35
2018-03-19T03:49:47.443Z,40.39
2018-03-19T03:50:50.880Z,40.34
2018-03-19T03:51:54.278Z,40.35
2018-03-19T03:52:58.602Z,40.42
2018-03-19T03:54:02.272Z,40.42
2018-03-19T03:55:05.644Z,40.45
2018-03-19T03:56:08.957Z,40.51
2018-03-19T03:57:13.233Z,40.59
2018-03-19T03:58:16.673Z,40.66
2018-03-19T03:59:19.992Z,40.71
2018-03-19T04:00:25.522Z,40.74
2018-03-19T04:01:28.863Z,40.78
2018-03-19T04:02:32.259Z,40.81
2018-03-19T04:03:35.643Z,40.88
2018-03-19T04:04:39.087Z,40.95
2018-03-19T04:05:42.421Z,40.99
2018-03-19T04:06:45.969Z,41.01
2018-03-19T04:07:49.292Z,41.01
2018-03-19T04:08:52.592Z,41.03
2018-03-19T04:09:55.974Z,41.00
2018-03-19T04:10:59.313Z,41.00
2018-03-19T04:12:02.632Z,40.95
2018-03-19T04:13:05.961Z,40.93
2018-03-19T04:14:09.267Z,40.94
2018-03-19T04:15:13.389Z,41.00
2018-03-19T04:16:16.792Z,41.08
2018-03-19T04:17:20.104Z,41.09
2018-03-19T04:18:23.440Z,41.18
2018-03-19T04:19:26.798Z,41.23
2018-03-19T04:20:30.109Z,41.26
2018-03-19T04:21:34.301Z,41.31
2018-03-19T04:22:37.666Z,41.35
2018-03-19T04:23:41.028Z,41.36
2018-03-19T04:24:44.358Z,41.38
2018-03-19T04:25:47.757Z,41.44
2018-03-19T04:26:51.181Z,41.45
2018-03-19T04:27:54.476Z,41.46
2018-03-19T04:28:57.893Z,41.44
2018-03-19T04:30:01.247Z,41.45
2018-03-19T04:31:04.578Z,41.46
2018-03-19T04:32:07.880Z,41.51
2018-03-19T04:33:11.232Z,41.54
2018-03-19T04:34:14.552Z,41.57
2018-03-19T04:35:18.005Z,41.62
2018-03-19T04:36:21.456Z,41.64
2018-03-19T04:37:24.981Z,41.68
2018-03-19T04:38:28.311Z,41.72
2018-03-19T04:39:32.269Z,41.76
2018-03-19T04:40:35.656Z,41.78
2018-03-19T04:41:39.012Z,41.82
2018-03-19T04:42:42.444Z,41.82
2018-03-19T04:43:45.810Z,41.80
2018-03-19T04:44:49.171Z,41.79
2018-03-19T04:45:52.801Z,41.81
2018-03-19T04:46:56.104Z,41.84
2018-03-19T04:47:59.560Z,41.87
2018-03-19T04:49:02.870Z,41.88
2018-03-19T04:50:06.262Z,41.87
2018-03-19T04:51:09.587Z,41.89
2018-03-19T04:52:12.963Z,41.90
2018-03-19T04:53:16.535Z,41.89
2018-03-19T04:54:19.868Z,41.92
2018-03-19T04:55:23.328Z,41.97
2018-03-19T04:56:29.361Z,42.05
2018-03-19T04:57:34.572Z,42.11
2018-03-19T04:58:37.973Z,42.16
2018-03-19T04:59:42.382Z,42.17
2018-03-19T05:00:46.683Z,42.14
2018-03-19T05:01:50.067Z,42.17
2018-03-19T05:02:53.521Z,42.21
2018-03-19T05:03:57.724Z,42.28
2018-03-19T05:05:01.974Z,42.38
2018-03-19T05:06:05.381Z,42.45
2018-03-19T05:07:08.716Z,42.46
2018-03-19T05:08:12.091Z,42.47
2018-03-19T05:09:15.516Z,42.51
2018-03-19T05:10:19.369Z,42.53
2018-03-19T05:11:22.848Z,42.54
2018-03-19T05:12:26.262Z,42.52
2018-03-19T05:13:29.593Z,42.54
2018-03-19T05:14:33.008Z,42.60
2018-03-19T05:15:36.376Z,42.60
2018-03-19T05:16:39.725Z,42.55
2018-03-19T05:17:43.940Z,42.54
2018-03-19T05:18:49.690Z,42.57
2018-03-19T05:19:53.068Z,42.63
2018-03-19T05:20:56.390Z,42.66
2018-03-19T05:21:59.728Z,42.68
2018-03-19T05:23:04.066Z,42.73
2018-03-19T05:24:07.427Z,42.79
2018-03-19T05:25:10.847Z,42.82
2018-03-19T05:26:14.158Z,42.83
2018-03-19T05:27:17.485Z,42.82
2018-03-19T05:28:21.092Z,42.84
2018-03-19T05:29:24.394Z,42.85
2018-03-19T05:30:27.802Z,42.83
2018-03-19T05:31:31.110Z,42.83
2018-03-19T05:32:34.534Z,42.85
2018-03-19T05:33:37.879Z,42.84
2018-03-19T05:34:41.270Z,42.85
2018-03-19T05:35:44.670Z,42.86
2018-03-19T05:36:48.067Z,42.88
2018-03-19T05:37:51.427Z,42.93
2018-03-19T05:38:54.927Z,42.91
2018-03-19T05:39:58.434Z,42.94
2018-03-19T05:41:02.484Z,42.97
2018-03-19T05:42:05.820Z,42.98
2018-03-19T05:43:09.290Z,42.98
2018-03-19T05:44:12.616Z,43.00
2018-03-19T05:45:15.990Z,43.04
2018-03-19T05:46:19.309Z,43.03
2018-03-19T05:47:22.669Z,43.03
2018-03-19T05:48:26.039Z,43.05
2018-03-19T05:49:29.346Z,43.07
2018-03-19T05:50:32.689Z,43.10
2018-03-19T05:51:36.043Z,43.12
2018-03-19T05:52:39.360Z,43.14
2018-03-19T05:53:43.053Z,43.15
2018-03-19T05:54:46.417Z,43.17
2018-03-19T05:55:50.333Z,43.18
2018-03-19T05:56:53.801Z,43.17
2018-03-19T05:57:57.122Z,43.13
2018-03-19T05:59:00.498Z,43.13
2018-03-19T06:00:03.816Z,43.15
2018-03-19T06:01:08.556Z,43.16
2018-03-19T06:02:11.894Z,43.12
2018-03-19T06:03:15.235Z,43.07
2018-03-19T06:04:18.583Z,43.06
2018-03-19T06:05:22.996Z,43.06
2018-03-19T06:06:26.793Z,43.03
2018-03-19T06:07:30.431Z,43.04
2018-03-19T06:08:33.863Z,43.04
2018-03-19T06:09:37.164Z,43.00
2018-03-19T06:10:40.575Z,42.97
2018-03-19T06:11:44.236Z,42.93
2018-03-19T06:12:48.307Z,42.93
2018-03-19T06:13:51.642Z,42.91
2018-03-19T06:14:54.995Z,42.89
2018-03-19T06:15:58.347Z,42.91
2018-03-19T06:17:01.700Z,42.94
2018-03-19T06:18:05.076Z,42.96
2018-03-19T06:19:08.488Z,42.96
2018-03-19T06:20:11.836Z,42.93
2018-03-19T06:21:15.604Z,42.91
2018-03-19T06:22:18.878Z,42.95
2018-03-19T06:23:22.250Z,42.95
2018-03-19T06:24:25.610Z,42.97
2018-03-19T06:25:29.083Z,42.98
2018-03-19T06:26:32.541Z,42.96
2018-03-19T06:27:35.914Z,42.97
2018-03-19T06:28:39.498Z,42.96
2018-03-19T06:29:42.892Z,42.98
2018-03-19T06:30:46.235Z,42.97
2018-03-19T06:31:50.429Z,43.00
2018-03-19T06:32:53.805Z,43.00
2018-03-19T06:33:57.325Z,42.98
2018-03-19T06:35:01.321Z,42.93
2018-03-19T06:36:04.681Z,42.95
2018-03-19T06:37:08.002Z,42.94
2018-03-19T06:38:12.174Z,42.96
2018-03-19T06:39:16.021Z,42.99
2018-03-19T06:40:19.424Z,43.01
2018-03-19T06:41:22.761Z,42.91
2018-03-19T06:42:26.101Z,42.89
2018-03-19T06:43:29.470Z,42.88
2018-03-19T06:44:33.174Z,42.89
2018-03-19T06:45:36.477Z,42.91
2018-03-19T06:46:39.843Z,42.94
2018-03-19T06:47:43.148Z,42.92
2018-03-19T06:48:46.603Z,42.85
2018-03-19T06:49:51.300Z,42.83
2018-03-19T06:50:54.549Z,42.77
2018-03-19T06:51:57.997Z,42.73
2018-03-19T06:53:01.797Z,42.67
2018-03-19T06:54:05.112Z,42.64
2018-03-19T06:55:09.341Z,42.53
2018-03-19T06:56:12.676Z,42.54
2018-03-19T06:57:16.187Z,42.56
2018-03-19T06:58:19.775Z,42.60
2018-03-19T06:59:23.109Z,42.65
2018-03-19T07:00:26.445Z,42.65
2018-03-19T07:01:31.268Z,42.65
2018-03-19T07:02:34.819Z,42.71
2018-03-19T07:03:38.289Z,42.76
2018-03-19T07:04:41.656Z,42.80
2018-03-19T07:05:45.183Z,42.85
2018-03-19T07:06:48.624Z,42.88
2018-03-19T07:07:51.959Z,42.90
2018-03-19T07:08:55.375Z,42.91
2018-03-19T07:09:58.793Z,42.93
2018-03-19T07:11:02.229Z,42.95
2018-03-19T07:12:06.553Z,42.95
2018-03-19T07:13:09.852Z,42.93
2018-03-19T07:14:13.406Z,42.84
2018-03-19T07:15:16.788Z,42.75
2018-03-19T07:16:20.173Z,42.67
2018-03-19T07:17:23.505Z,42.63
2018-03-19T07:18:26.918Z,42.60
2018-03-19T07:19:31.040Z,42.58
2018-03-19T07:20:34.369Z,42.52
2018-03-19T07:21:37.688Z,42.34
2018-03-19T07:22:41.121Z,42.23
2018-03-19T07:23:44.525Z,42.16
2018-03-19T07:24:47.872Z,42.14
2018-03-19T07:25:51.211Z,42.15
2018-03-19T07:26:55.484Z,42.12
2018-03-19T07:27:59.700Z,42.14
2018-03-19T07:29:03.137Z,42.15
2018-03-19T07:30:06.922Z,42.17
2018-03-19T07:31:10.219Z,42.15
2018-03-19T07:32:13.701Z,42.12
2018-03-19T07:33:17.048Z,42.07
2018-03-19T07:34:20.431Z,42.10
2018-03-19T07:35:23.881Z,42.15
2018-03-19T07:36:27.455Z,42.15
2018-03-19T07:37:30.806Z,42.10
2018-03-19T07:38:34.499Z,42.11
2018-03-19T07:39:37.872Z,42.04
2018-03-19T07:40:41.189Z,42.00
2018-03-19T07:41:44.761Z,41.74
2018-03-19T07:42:48.292Z,41.65
2018-03-19T07:43:52.485Z,41.60
2018-03-19T07:44:55.845Z,41.61
2018-03-19T07:45:59.150Z,41.60
2018-03-19T07:47:02.535Z,41.63
2018-03-19T07:48:05.877Z,41.65
2018-03-19T07:49:10.398Z,41.65
2018-03-19T07:50:13.797Z,41.67
2018-03-19T07:51:17.268Z,41.69
2018-03-19T07:52:20.608Z,41.66
2018-03-19T07:53:24.020Z,41.61
2018-03-19T07:54:27.373Z,41.57
2018-03-19T07:55:30.782Z,41.55
2018-03-19T07:56:34.263Z,41.51
2018-03-19T07:57:37.626Z,41.54
2018-03-19T07:58:40.958Z,41.57
2018-03-19T07:59:44.335Z,41.55
2018-03-19T08:00:47.645Z,41.60
2018-03-19T08:01:52.085Z,41.69
2018-03-19T08:02:55.501Z,41.77
2018-03-19T08:03:58.827Z,41.76
2018-03-19T08:05:02.414Z,41.70
2018-03-19T08:06:05.813Z,41.64
2018-03-19T08:07:09.185Z,41.62
2018-03-19T08:08:13.003Z,41.56
2018-03-19T08:09:16.388Z,41.56
2018-03-19T08:10:19.875Z,41.59
2018-03-19T08:11:24.577Z,41.58
2018-03-19T08:12:29.284Z,41.54
2018-03-19T08:13:32.613Z,41.47
2018-03-19T08:14:36.066Z,41.46
2018-03-19T08:15:39.423Z,41.54
2018-03-19T08:16:42.860Z,41.64
2018-03-19T08:17:46.228Z,41.69
2018-03-19T08:18:49.548Z,41.70
2018-03-19T08:19:52.887Z,41.72
2018-03-19T08:20:56.412Z,41.70
2018-03-19T08:21:59.748Z,41.58
2018-03-19T08:23:03.107Z,41.54
2018-03-19T08:24:06.401Z,41.56
2018-03-19T08:25:10.424Z,41.59
2018-03-19T08:26:13.724Z,41.65
2018-03-19T08:27:17.110Z,41.67
2018-03-19T08:28:20.483Z,41.67
2018-03-19T08:29:23.833Z,41.63
2018-03-19T08:30:27.193Z,41.61
2018-03-19T08:31:30.555Z,41.58
2018-03-19T08:32:33.999Z,41.58
2018-03-19T08:33:37.336Z,41.59
2018-03-19T08:34:40.681Z,41.54
2018-03-19T08:35:44.861Z,41.49
2018-03-19T08:36:48.244Z,41.42
2018-03-19T08:37:51.528Z,41.29
2018-03-19T08:38:54.883Z,41.22
2018-03-19T08:39:58.227Z,41.13
2018-03-19T08:41:02.367Z,41.08
2018-03-19T08:42:05.754Z,40.98
2018-03-19T08:43:09.449Z,40.95
2018-03-19T08:44:13.013Z,40.97
2018-03-19T08:45:16.388Z,40.88
2018-03-19T08:46:19.905Z,40.85
2018-03-19T08:47:23.244Z,40.82
2018-03-19T08:48:26.554Z,40.83
2018-03-19T08:49:29.902Z,40.83
2018-03-19T08:50:33.227Z,40.69
2018-03-19T08:51:37.412Z,40.74
2018-03-19T08:52:40.922Z,40.68
2018-03-19T08:53:44.259Z,40.68
2018-03-19T08:54:48.162Z,40.61
2018-03-19T08:55:51.508Z,40.55
2018-03-19T08:56:55.269Z,40.63
2018-03-19T08:57:59.796Z,40.71
2018-03-19T08:59:03.165Z,40.77
2018-03-19T09:00:06.526Z,40.77
2018-03-19T09:01:10.347Z,40.69
2018-03-19T09:02:15.688Z,40.61
2018-03-19T09:03:18.997Z,40.54
2018-03-19T09:04:22.437Z,40.43
2018-03-19T09:05:25.744Z,40.40
2018-03-19T09:06:29.065Z,40.49
2018-03-19T09:07:32.438Z,40.54
2018-03-19T09:08:36.394Z,40.58
2018-03-19T09:09:39.793Z,40.62
2018-03-19T09:10:43.085Z,40.67
2018-03-19T09:11:46.400Z,40.59
2018-03-19T09:12:49.736Z,40.38
2018-03-19T09:13:53.136Z,40.38
2018-03-19T09:14:56.634Z,40.39
2018-03-19T09:15:59.949Z,40.40
2018-03-19T09:17:03.366Z,40.36
2018-03-19T09:18:06.819Z,40.37
2018-03-19T09:19:10.128Z,40.33
2018-03-19T09:20:13.468Z,40.32
2018-03-19T09:21:16.788Z,40.21
2018-03-19T09:22:20.147Z,40.14
2018-03-19T09:23:23.538Z,40.14
2018-03-19T09:24:26.862Z,40.09
2018-03-19T09:25:30.172Z,40.20
2018-03-19T09:26:33.492Z,40.28
2018-03-19T09:27:36.814Z,40.33
2018-03-19T09:28:40.182Z,40.37
2018-03-19T09:29:44.341Z,40.38
2018-03-19T09:30:47.712Z,40.37
2018-03-19T09:31:51.009Z,40.36
2018-03-19T09:32:54.380Z,40.24
2018-03-19T09:33:58.335Z,40.27
2018-03-19T09:35:02.138Z,40.36
2018-03-19T09:36:05.467Z,40.43
2018-03-19T09:37:08.770Z,40.53
2018-03-19T09:38:12.142Z,40.60
2018-03-19T09:39:15.523Z,40.62
2018-03-19T09:40:18.840Z,40.49
2018-03-19T09:41:22.162Z,40.39
2018-03-19T09:42:25.500Z,40.37
2018-03-19T09:43:33.180Z,40.31
2018-03-19T09:44:36.516Z,40.28
2018-03-19T09:45:39.852Z,40.32
2018-03-19T09:46:43.348Z,40.38
2018-03-19T09:47:46.617Z,40.35
2018-03-19T09:48:49.922Z,40.33
2018-03-19T09:49:53.275Z,40.25
2018-03-19T09:50:56.668Z,40.19
2018-03-19T09:52:00.004Z,40.24
2018-03-19T09:53:03.345Z,40.16
2018-03-19T09:54:06.708Z,40.21
2018-03-19T09:55:10.041Z,40.27
2018-03-19T09:56:13.412Z,40.30
2018-03-19T09:57:16.773Z,40.33
2018-03-19T09:58:20.117Z,40.28
2018-03-19T09:59:23.463Z,40.26
2018-03-19T10:00:26.871Z,40.28
2018-03-19T10:01:30.230Z,40.29
2018-03-19T10:02:34.848Z,40.25
2018-03-19T10:03:38.161Z,40.12
2018-03-19T10:04:41.524Z,40.06
2018-03-19T10:05:44.852Z,39.96
2018-03-19T10:06:48.179Z,40.01
2018-03-19T10:07:51.504Z,40.01
2018-03-19T10:08:54.908Z,39.92
2018-03-19T10:09:58.250Z,39.87
2018-03-19T10:11:01.612Z,39.77
2018-03-19T10:12:04.944Z,39.69
2018-03-19T10:13:08.349Z,39.75
2018-03-19T10:14:11.727Z,39.77
2018-03-19T10:15:15.070Z,39.85
2018-03-19T10:16:18.443Z,39.94
2018-03-19T10:17:21.811Z,39.89
2018-03-19T10:18:25.117Z,39.70
2018-03-19T10:19:28.500Z,39.68
2018-03-19T10:20:31.884Z,39.71
2018-03-19T10:21:35.728Z,39.72
2018-03-19T10:22:39.058Z,39.74
2018-03-19T10:23:42.421Z,39.76
2018-03-19T10:24:45.848Z,39.79
2018-03-19T10:25:49.286Z,39.84
2018-03-19T10:26:52.624Z,39.71
2018-03-19T10:27:56.011Z,39.62
2018-03-19T10:28:59.467Z,39.54
2018-03-19T10:30:02.772Z,39.58
2018-03-19T10:31:06.180Z,39.41
2018-03-19T10:32:09.535Z,39.35
2018-03-19T10:33:12.895Z,39.23
2018-03-19T10:34:16.244Z,39.27
2018-03-19T10:35:19.588Z,39.31
2018-03-19T10:36:22.931Z,39.35
2018-03-19T10:37:26.256Z,39.37
2018-03-19T10:38:29.640Z,39.31
2018-03-19T10:39:33.040Z,39.31
2018-03-19T10:40:36.396Z,39.05
2018-03-19T10:41:39.757Z,38.89
2018-03-19T10:42:44.311Z,38.82
2018-03-19T10:43:48.473Z,38.84
2018-03-19T10:44:51.863Z,38.72
2018-03-19T10:45:55.167Z,38.69
2018-03-19T10:46:58.576Z,38.60
2018-03-19T10:48:01.969Z,38.63
2018-03-19T10:49:05.326Z,38.70
2018-03-19T10:50:08.645Z,38.74
2018-03-19T10:51:12.073Z,38.76
2018-03-19T10:52:15.400Z,38.79
2018-03-19T10:53:18.885Z,38.71
2018-03-19T10:54:22.208Z,38.49
2018-03-19T10:55:25.522Z,38.42
2018-03-19T10:56:28.905Z,38.34
2018-03-19T10:57:32.999Z,38.24
2018-03-19T10:58:36.371Z,38.20
2018-03-19T10:59:39.888Z,38.23
2018-03-19T11:00:43.286Z,38.19
2018-03-19T11:01:46.673Z,38.18
2018-03-19T11:03:09.687Z,38.21
2018-03-19T11:04:14.993Z,38.32
2018-03-19T11:05:23.948Z,38.34
2018-03-19T11:06:32.854Z,38.31
2018-03-19T11:07:41.854Z,38.38
2018-03-19T11:08:48.642Z,38.36
2018-03-19T11:09:52.074Z,38.33
2018-03-19T11:10:55.391Z,38.31
2018-03-19T11:11:58.925Z,38.25
2018-03-19T11:13:02.175Z,38.25
2018-03-19T11:14:05.628Z,38.25
2018-03-19T11:15:09.078Z,38.27
2018-03-19T11:16:12.396Z,38.19
2018-03-19T11:17:15.730Z,38.10
2018-03-19T11:18:19.091Z,38.10
2018-03-19T11:19:22.437Z,38.15
2018-03-19T11:20:25.808Z,38.09
2018-03-19T11:21:29.113Z,38.06
2018-03-19T11:22:32.428Z,38.06
2018-03-19T11:23:36.976Z,38.07
2018-03-19T11:24:40.750Z,38.08
2018-03-19T11:25:46.281Z,37.85
2018-03-19T11:26:49.969Z,37.90
2018-03-19T11:27:54.288Z,37.97
2018-03-19T11:28:57.681Z,37.95
2018-03-19T11:30:00.980Z,37.95
2018-03-19T11:31:04.350Z,38.00
2018-03-19T11:32:07.999Z,38.00
2018-03-19T11:33:11.417Z,37.85
2018-03-19T11:34:14.745Z,37.85
2018-03-19T11:35:18.131Z,37.87
2018-03-19T11:36:23.792Z,37.87
2018-03-19T11:37:28.353Z,37.82
2018-03-19T11:38:31.650Z,37.75
2018-03-19T11:39:35.049Z,37.60
2018-03-19T11:40:38.595Z,37.57
2018-03-19T11:41:41.921Z,37.61
2018-03-19T11:42:45.339Z,37.46
2018-03-19T11:43:48.646Z,37.33
2018-03-19T11:44:52.075Z,37.10
2018-03-19T11:45:57.080Z,37.14
2018-03-19T11:47:00.945Z,37.22
2018-03-19T11:48:04.452Z,37.21
2018-03-19T11:49:07.865Z,37.23
2018-03-19T11:50:12.732Z,37.28
2018-03-19T11:51:17.141Z,37.26
2018-03-19T11:52:20.673Z,37.24
2018-03-19T11:53:24.036Z,37.17
2018-03-19T11:54:27.391Z,37.22
2018-03-19T11:55:30.694Z,37.16
2018-03-19T11:56:34.024Z,37.14
2018-03-19T11:57:37.396Z,37.11
2018-03-19T11:58:40.752Z,37.02
2018-03-19T11:59:44.090Z,36.95
2018-03-19T12:00:50.229Z,37.01
2018-03-19T12:01:53.753Z,37.08
2018-03-19T12:02:57.339Z,37.11
2018-03-19T12:04:00.733Z,37.08
2018-03-19T12:05:04.076Z,37.07
2018-03-19T12:06:07.440Z,36.84
2018-03-19T12:07:10.852Z,36.81
2018-03-19T12:08:14.233Z,36.65
2018-03-19T12:09:17.550Z,36.61
2018-03-19T12:10:20.983Z,36.62
2018-03-19T12:11:24.690Z,36.72
2018-03-19T12:12:28.093Z,36.83
2018-03-19T12:13:33.340Z,36.95
2018-03-19T12:14:36.936Z,36.98
2018-03-19T12:15:40.389Z,36.82
2018-03-19T12:16:43.824Z,36.78
2018-03-19T12:17:47.134Z,36.81
2018-03-19T12:18:50.740Z,36.83
2018-03-19T12:19:54.175Z,36.89
2018-03-19T12:20:57.553Z,36.85
2018-03-19T12:22:00.896Z,36.88
2018-03-19T12:23:07.064Z,36.88
2018-03-19T12:24:10.526Z,36.84
2018-03-19T12:25:14.065Z,36.73
2018-03-19T12:26:17.361Z,36.59
2018-03-19T12:27:20.680Z,36.58
2018-03-19T12:28:24.013Z,36.51
2018-03-19T12:29:27.478Z,36.55
2018-03-19T12:30:31.079Z,36.58
2018-03-19T12:31:34.468Z,36.61
2018-03-19T12:32:37.919Z,36.66
2018-03-19T12:33:41.221Z,36.73
2018-03-19T12:34:44.796Z,36.77
2018-03-19T12:35:48.355Z,36.83
2018-03-19T12:36:51.789Z,36.84
2018-03-19T12:37:55.199Z,36.49
2018-03-19T12:38:58.584Z,36.19
2018-03-19T12:40:02.101Z,36.23
2018-03-19T12:41:05.551Z,36.24
2018-03-19T12:42:08.997Z,36.30
2018-03-19T12:43:12.433Z,36.40
2018-03-19T12:44:15.799Z,36.47
2018-03-19T12:45:19.145Z,36.14
2018-03-19T12:46:22.701Z,36.09
2018-03-19T12:47:26.014Z,36.18
2018-03-19T12:48:29.506Z,36.25
2018-03-19T12:49:32.847Z,36.31
2018-03-19T12:50:37.137Z,36.18
2018-03-19T12:51:40.565Z,36.15
2018-03-19T12:52:43.878Z,36.25
2018-03-19T12:53:47.293Z,36.25
2018-03-19T12:54:50.683Z,36.83
2018-03-19T12:55:54.112Z,37.22
2018-03-19T12:56:57.426Z,37.47
2018-03-19T12:58:00.823Z,37.40
2018-03-19T12:59:04.303Z,37.44
2018-03-19T13:00:08.701Z,37.27
2018-03-19T13:01:12.086Z,37.18
2018-03-19T13:02:15.419Z,37.25
2018-03-19T13:03:20.470Z,37.61
2018-03-19T13:04:23.782Z,37.64
2018-03-19T13:05:27.073Z,37.59
2018-03-19T13:06:30.463Z,37.76
2018-03-19T13:07:33.928Z,37.50
2018-03-19T13:08:37.396Z,37.34
2018-03-19T13:09:40.710Z,37.17
2018-03-19T13:10:44.259Z,36.99
2018-03-19T13:11:47.692Z,36.83
2018-03-19T13:12:51.034Z,36.70
2018-03-19T13:13:54.399Z,37.07
2018-03-19T13:14:57.792Z,36.81
2018-03-19T13:16:01.225Z,36.59
2018-03-19T13:17:04.744Z,36.50
2018-03-19T13:18:08.137Z,36.54
2018-03-19T13:19:11.625Z,36.43
2018-03-19T13:20:14.955Z,36.29
2018-03-19T13:21:18.562Z,36.23
2018-03-19T13:22:21.937Z,36.09
2018-03-19T13:23:25.329Z,35.72
2018-03-19T13:24:29.423Z,35.62
2018-03-19T13:25:33.192Z,35.50
2018-03-19T13:26:36.637Z,35.59
2018-03-19T13:27:40.024Z,35.67
2018-03-19T13:28:43.473Z,35.71
2018-03-19T13:29:46.812Z,35.73
2018-03-19T13:30:50.448Z,35.79
2018-03-19T13:31:54.245Z,35.83
2018-03-19T13:32:57.756Z,35.86
2018-03-19T13:34:01.229Z,35.87
2018-03-19T13:35:04.866Z,35.91
2018-03-19T13:36:08.422Z,35.93
2018-03-19T13:37:11.843Z,35.90
2018-03-19T13:38:15.252Z,35.87
2018-03-19T13:39:18.681Z,35.70